Pagina principale
METAR-TAF:

METAR-TAF

Aeroporti :

Reggio Calabria, Italia

Aeroporto di Reggio Calabria

latitudine: 38-04N, longitudine: 015-39E, altezza: 11 m

Osservazione

Il bollettino è stato emesso 42 minuti fa, alle 19:50 UTC
Vento 11 kt da nord
Temperature 26°C
Umidità 58%
Pressione 1007 hPa
Visibilità 10 km o più
nessuna nube inferiore a 1500 m e nessun cumulonembo

METAR: LICR 251950Z 01011KT CAVOK 26/17 Q1007

Ora: 22:32 (20:32 UTC)

Previsione

Il bollettino è stato emesso 3 ore e 32 minuti fa, alle 17:00 UTC
Previsione valida dal 25 alle 18 UTC al 26 alle 18 UTC
Vento 15 kt da nord
Visibilità 10 km o più
Nubi sparse ad un'altezza di 4000 ft

TAF: LICR 251700Z 2518/2618 35015KT 9999 SCT040

Osservazioni e previsioni meteorologiche di più di 4000 aeroporti (messaggi METAR e TAF).

Le stazioni disponibili sono rappresentate dai dischi gialli e rossi sulla carta.

Puntare il mouse per vedere il nome della stazione.

Clicca sopra per visualizzare le osservazioni e previsioni meteorologiche.

Per cambiare la mappa : fare clic sui pulsanti verdi con una croce nera per ingrandire, il pulsante verde con un trattino per diminuire, o sulla freccia verde per le mappe adiacenti.


METAR-TAF: